createdAt,value
2019-02-16T00:02:16.800Z,22
2019-02-16T00:05:22.766Z,22
2019-02-16T00:08:28.743Z,22
2019-02-16T00:11:34.616Z,22
2019-02-16T00:14:40.553Z,22
2019-02-16T00:17:46.439Z,22
2019-02-16T00:20:52.366Z,22
2019-02-16T00:24:08.138Z,22
2019-02-16T00:27:13.970Z,21.9
2019-02-16T00:30:20.020Z,21.9
2019-02-16T00:33:26.057Z,21.9
2019-02-16T00:36:31.937Z,21.9
2019-02-16T00:39:38.086Z,21.9
2019-02-16T00:42:43.953Z,21.9
2019-02-16T00:45:49.931Z,21.9
2019-02-16T00:48:55.862Z,21.9
2019-02-16T00:52:01.968Z,21.9
2019-02-16T00:55:07.934Z,21.8
2019-02-16T00:58:13.870Z,21.9
2019-02-16T01:01:19.863Z,21.8
2019-02-16T01:04:25.770Z,21.8
2019-02-16T01:07:31.710Z,21.8
2019-02-16T01:10:37.673Z,21.8
2019-02-16T01:13:43.645Z,21.8
2019-02-16T01:16:49.572Z,21.8
2019-02-16T01:19:55.495Z,21.8
2019-02-16T01:23:01.609Z,21.8
2019-02-16T01:26:07.593Z,21.8
2019-02-16T01:29:13.467Z,21.7
2019-02-16T01:32:19.391Z,21.7
2019-02-16T01:35:25.285Z,21.7
2019-02-16T01:38:33.944Z,21.7
2019-02-16T01:41:39.901Z,21.7
2019-02-16T01:44:45.855Z,21.7
2019-02-16T01:47:51.951Z,21.7
2019-02-16T01:50:57.962Z,21.7
2019-02-16T01:54:03.906Z,21.7
2019-02-16T01:57:09.976Z,21.7
2019-02-16T02:00:16.043Z,21.7
2019-02-16T02:03:21.982Z,21.7
2019-02-16T02:06:27.913Z,21.7
2019-02-16T02:09:33.904Z,21.6
2019-02-16T02:12:39.844Z,21.6
2019-02-16T02:15:45.722Z,21.6
2019-02-16T02:18:51.805Z,21.6
2019-02-16T02:21:57.823Z,21.6
2019-02-16T02:25:03.765Z,21.6
2019-02-16T02:28:09.721Z,21.6
2019-02-16T02:31:15.613Z,21.6
2019-02-16T02:34:21.573Z,21.6
2019-02-16T02:37:27.441Z,21.6
2019-02-16T02:40:33.370Z,21.6
2019-02-16T02:43:39.426Z,21.6
2019-02-16T02:46:45.357Z,21.6
2019-02-16T02:49:51.452Z,21.6
2019-02-16T02:52:57.331Z,21.6
2019-02-16T02:56:03.388Z,21.5
2019-02-16T02:59:09.306Z,21.5
2019-02-16T03:02:15.230Z,21.5
2019-02-16T03:05:21.135Z,21.5
2019-02-16T03:08:27.160Z,21.5
2019-02-16T03:11:33.125Z,21.5
2019-02-16T03:14:39.269Z,21.5
2019-02-16T03:17:45.271Z,21.5
2019-02-16T03:20:51.458Z,21.5
2019-02-16T03:23:57.465Z,21.5
2019-02-16T03:27:03.551Z,21.5
2019-02-16T03:30:09.536Z,21.5
2019-02-16T03:33:15.506Z,21.5
2019-02-16T03:36:21.498Z,21.5
2019-02-16T03:39:27.365Z,21.5
2019-02-16T03:42:33.395Z,21.5
2019-02-16T03:45:39.371Z,21.5
2019-02-16T03:48:45.358Z,21.4
2019-02-16T03:51:51.813Z,21.5
2019-02-16T03:54:57.878Z,21.5
2019-02-16T03:58:03.930Z,21.4
2019-02-16T04:01:09.885Z,21.4
2019-02-16T04:04:16.066Z,21.4
2019-02-16T04:07:22.011Z,21.4
2019-02-16T04:10:30.481Z,21.4
2019-02-16T04:13:36.405Z,21.4
2019-02-16T04:16:42.352Z,21.4
2019-02-16T04:19:48.351Z,21.4
2019-02-16T04:22:54.352Z,21.4
2019-02-16T04:26:00.219Z,21.4
2019-02-16T04:29:06.347Z,21.4
2019-02-16T04:32:12.351Z,21.3
2019-02-16T04:35:18.266Z,21.3
2019-02-16T04:38:24.281Z,21.3
2019-02-16T04:41:30.130Z,21.3
2019-02-16T04:44:36.080Z,21.3
2019-02-16T04:47:42.064Z,21.3
2019-02-16T04:50:48.160Z,21.3
2019-02-16T04:53:54.094Z,21.3
2019-02-16T04:57:00.158Z,21.3
2019-02-16T05:00:06.197Z,21.3
2019-02-16T05:03:12.056Z,21.3
2019-02-16T05:06:18.175Z,21.3
2019-02-16T05:09:24.082Z,21.3
2019-02-16T05:12:30.048Z,21.3
2019-02-16T05:15:36.002Z,21.2
2019-02-16T05:18:42.007Z,21.2
2019-02-16T05:21:48.120Z,21.2
2019-02-16T05:24:54.051Z,21.2
2019-02-16T05:28:03.187Z,21.2
2019-02-16T05:31:09.131Z,21.2
2019-02-16T05:34:15.091Z,21.2
2019-02-16T05:37:21.007Z,21.2
2019-02-16T05:40:26.962Z,21.2
2019-02-16T05:43:32.884Z,21.2
2019-02-16T05:46:38.781Z,21.3
2019-02-16T05:49:44.770Z,21.3
2019-02-16T05:52:54.289Z,21.3
2019-02-16T05:56:00.609Z,21.3
2019-02-16T05:59:08.135Z,21.3
2019-02-16T06:02:14.311Z,21.4
2019-02-16T06:05:20.248Z,21.4
2019-02-16T06:08:26.242Z,21.4
2019-02-16T06:11:32.335Z,21.4
2019-02-16T06:14:38.313Z,21.5
2019-02-16T06:17:44.264Z,21.5
2019-02-16T06:20:50.240Z,21.5
2019-02-16T06:23:56.153Z,21.6
2019-02-16T06:27:02.147Z,21.6
2019-02-16T06:30:08.088Z,21.6
2019-02-16T06:33:14.101Z,21.6
2019-02-16T06:36:19.984Z,21.6
2019-02-16T06:39:26.022Z,21.7
2019-02-16T06:42:34.378Z,21.7
2019-02-16T06:45:40.463Z,21.7
2019-02-16T06:48:46.419Z,21.8
2019-02-16T06:51:52.409Z,21.8
2019-02-16T06:54:58.396Z,21.8
2019-02-16T06:58:04.521Z,21.9
2019-02-16T07:01:10.518Z,21.9
2019-02-16T07:04:16.439Z,21.9
2019-02-16T07:07:22.331Z,21.9
2019-02-16T07:10:28.313Z,22
2019-02-16T07:13:34.263Z,22
2019-02-16T07:16:40.189Z,22
2019-02-16T07:19:46.105Z,22
2019-02-16T07:22:52.127Z,22.1
2019-02-16T07:25:58.167Z,22.1
2019-02-16T07:29:06.101Z,22.1
2019-02-16T07:32:12.168Z,22.1
2019-02-16T07:35:18.025Z,22.1
2019-02-16T07:38:24.079Z,22.1
2019-02-16T07:41:29.958Z,22.2
2019-02-16T07:44:38.800Z,22.2
2019-02-16T07:47:44.840Z,22.2
2019-02-16T07:50:50.849Z,22.2
2019-02-16T07:53:59.475Z,22.2
2019-02-16T07:57:05.423Z,22.2
2019-02-16T08:00:11.487Z,22.2
2019-02-16T08:03:17.390Z,22.2
2019-02-16T08:06:23.424Z,22.2
2019-02-16T08:09:29.417Z,22.2
2019-02-16T08:12:35.376Z,22.3
2019-02-16T08:15:41.446Z,22.3
2019-02-16T08:18:47.381Z,22.3
2019-02-16T08:21:53.408Z,22.3
2019-02-16T08:24:59.379Z,22.3
2019-02-16T08:28:05.388Z,22.3
2019-02-16T08:31:11.511Z,22.3
2019-02-16T08:34:17.463Z,22.3
2019-02-16T08:37:23.491Z,22.3
2019-02-16T08:40:29.529Z,22.3
2019-02-16T08:43:35.505Z,22.3
2019-02-16T08:46:43.309Z,22.3
2019-02-16T08:49:49.262Z,22.3
2019-02-16T08:52:55.207Z,22.3
2019-02-16T08:56:03.902Z,22.3
2019-02-16T08:59:09.938Z,22.3
2019-02-16T09:02:15.999Z,22.3
2019-02-16T09:05:22.025Z,22.3
2019-02-16T09:08:27.877Z,22.3
2019-02-16T09:11:33.837Z,22.3
2019-02-16T09:14:39.744Z,22.3
2019-02-16T09:17:45.662Z,22.3
2019-02-16T09:20:51.735Z,22.2
2019-02-16T09:23:59.257Z,22.2
2019-02-16T09:27:08.357Z,22.2
2019-02-16T09:30:16.311Z,22.2
2019-02-16T09:33:22.219Z,22.2
2019-02-16T09:36:28.188Z,22.2
2019-02-16T09:39:34.206Z,22.2
2019-02-16T09:42:40.185Z,22.2
2019-02-16T09:45:46.121Z,22.2
2019-02-16T09:48:52.007Z,22.2
2019-02-16T09:51:57.974Z,22.2
2019-02-16T09:55:03.823Z,22.2
2019-02-16T09:58:09.778Z,22.2
2019-02-16T10:01:15.645Z,22.2
2019-02-16T10:04:21.632Z,22.2
2019-02-16T10:07:27.615Z,22.2
2019-02-16T10:10:35.856Z,22.2
2019-02-16T10:13:43.663Z,22.2
2019-02-16T10:16:49.498Z,22.2
2019-02-16T10:19:55.430Z,22.2
2019-02-16T10:23:01.456Z,22.2
2019-02-16T10:26:07.383Z,22.2
2019-02-16T10:29:13.377Z,22.2
2019-02-16T10:32:19.331Z,22.2
2019-02-16T10:35:25.263Z,22.2
2019-02-16T10:38:31.169Z,22.2
2019-02-16T10:41:37.157Z,22.2
2019-02-16T10:44:43.081Z,22.2
2019-02-16T10:47:49.025Z,22.2
2019-02-16T10:50:55.011Z,22.2
2019-02-16T10:54:01.133Z,22.2
2019-02-16T10:57:07.101Z,22.2
2019-02-16T11:00:13.135Z,22.2
2019-02-16T11:03:19.250Z,22.2
2019-02-16T11:06:27.214Z,22.2
2019-02-16T11:09:33.208Z,22.2
2019-02-16T11:12:39.072Z,22.3
2019-02-16T11:15:45.059Z,22.2
2019-02-16T11:18:50.960Z,22.2
2019-02-16T11:21:57.196Z,22.2
2019-02-16T11:25:05.195Z,22.3
2019-02-16T11:28:11.129Z,22.3
2019-02-16T11:31:16.996Z,22.3
2019-02-16T11:34:22.925Z,22.3
2019-02-16T11:37:28.919Z,22.3
2019-02-16T11:40:34.927Z,22.3
2019-02-16T11:43:41.161Z,22.3
2019-02-16T11:46:47.155Z,22.3
2019-02-16T11:49:53.074Z,22.3
2019-02-16T11:52:59.027Z,22.3
2019-02-16T11:56:05.043Z,22.3
2019-02-16T11:59:11.103Z,22.3
2019-02-16T12:02:17.071Z,22.3
2019-02-16T12:05:22.949Z,22.3
2019-02-16T12:08:28.891Z,22.3
2019-02-16T12:11:34.863Z,22.4
2019-02-16T12:14:40.740Z,22.3
2019-02-16T12:17:46.675Z,22.4
2019-02-16T12:20:55.276Z,22.4
2019-02-16T12:24:01.284Z,22.4
2019-02-16T12:27:07.248Z,22.4
2019-02-16T12:30:13.343Z,22.4
2019-02-16T12:33:19.256Z,22.4
2019-02-16T12:36:25.310Z,22.4
2019-02-16T12:39:31.183Z,22.4
2019-02-16T12:42:37.110Z,22.4
2019-02-16T12:45:50.774Z,22.4
2019-02-16T12:48:59.925Z,22.4
2019-02-16T12:52:08.548Z,22.4
2019-02-16T12:55:15.128Z,22.4
2019-02-16T12:58:23.862Z,22.4
2019-02-16T13:01:29.792Z,22.4
2019-02-16T13:04:35.767Z,22.4
2019-02-16T13:07:41.727Z,22.4
2019-02-16T13:10:47.739Z,22.4
2019-02-16T13:13:53.744Z,22.4
2019-02-16T13:16:59.764Z,22.4
2019-02-16T13:20:05.769Z,22.4
2019-02-16T13:23:11.732Z,22.4
2019-02-16T13:26:17.841Z,22.4
2019-02-16T13:29:26.654Z,22.4
2019-02-16T13:32:32.666Z,22.4
2019-02-16T13:35:38.590Z,22.4
2019-02-16T13:38:44.573Z,22.4
2019-02-16T13:41:50.504Z,22.4
2019-02-16T13:44:56.417Z,22.4
2019-02-16T13:48:02.376Z,22.4
2019-02-16T13:51:08.451Z,22.4
2019-02-16T13:54:14.458Z,22.4
2019-02-16T13:57:20.411Z,22.4
2019-02-16T14:00:26.444Z,22.4
2019-02-16T14:03:32.452Z,22.4
2019-02-16T14:06:38.460Z,22.4
2019-02-16T14:09:44.392Z,22.4
2019-02-16T14:12:50.436Z,22.4
2019-02-16T14:15:56.374Z,22.4
2019-02-16T14:19:02.207Z,22.4
2019-02-16T14:22:08.225Z,22.4
2019-02-16T14:25:14.247Z,22.4
2019-02-16T14:28:20.153Z,22.4
2019-02-16T14:31:28.343Z,22.4
2019-02-16T14:34:34.636Z,22.4
2019-02-16T14:37:40.570Z,22.4
2019-02-16T14:40:46.678Z,22.4
2019-02-16T14:43:55.414Z,22.4
2019-02-16T14:47:01.439Z,22.4
2019-02-16T14:50:07.355Z,22.4
2019-02-16T14:53:13.379Z,22.4
2019-02-16T14:56:19.381Z,22.4
2019-02-16T14:59:25.327Z,22.4
2019-02-16T15:02:31.257Z,22.4
2019-02-16T15:05:37.371Z,22.4
2019-02-16T15:08:43.364Z,22.4
2019-02-16T15:11:49.222Z,22.4
2019-02-16T15:14:55.208Z,22.4
2019-02-16T15:18:01.214Z,22.4
2019-02-16T15:21:09.218Z,22.4
2019-02-16T15:24:15.212Z,22.3
2019-02-16T15:27:21.100Z,22.3
2019-02-16T15:30:29.595Z,22.3
2019-02-16T15:33:35.617Z,22.3
2019-02-16T15:36:41.600Z,22.3
2019-02-16T15:39:47.570Z,22.3
2019-02-16T15:42:53.521Z,22.3
2019-02-16T15:45:59.447Z,22.3
2019-02-16T15:49:05.379Z,22.2
2019-02-16T15:52:11.338Z,22.2
2019-02-16T15:55:17.382Z,22.2
2019-02-16T15:58:23.340Z,22.2
2019-02-16T16:01:29.473Z,22.2
2019-02-16T16:04:35.833Z,22.2
2019-02-16T16:07:41.727Z,22.2
2019-02-16T16:10:47.709Z,22.2
2019-02-16T16:13:53.736Z,22.2
2019-02-16T16:16:59.719Z,22.2
2019-02-16T16:20:05.566Z,22.1
2019-02-16T16:23:11.598Z,22.1
2019-02-16T16:26:19.486Z,22.1
2019-02-16T16:29:25.688Z,22.1
2019-02-16T16:32:31.618Z,22.1
2019-02-16T16:35:37.552Z,22.1
2019-02-16T16:38:43.530Z,22
2019-02-16T16:41:49.620Z,22
2019-02-16T16:44:55.532Z,22
2019-02-16T16:48:01.679Z,22
2019-02-16T16:51:07.620Z,22
2019-02-16T16:54:13.575Z,22
2019-02-16T16:57:19.510Z,22
2019-02-16T17:00:25.510Z,22
2019-02-16T17:03:31.382Z,22
2019-02-16T17:06:37.394Z,21.9
2019-02-16T17:09:43.384Z,21.9
2019-02-16T17:12:49.258Z,21.9
2019-02-16T17:15:55.273Z,21.9
2019-02-16T17:19:01.275Z,21.9
2019-02-16T17:22:07.202Z,21.9
2019-02-16T17:25:13.282Z,21.9
2019-02-16T17:28:19.241Z,21.8
2019-02-16T17:31:25.194Z,21.8
2019-02-16T17:34:31.198Z,21.8
2019-02-16T17:37:37.201Z,21.8
2019-02-16T17:40:43.213Z,21.8
2019-02-16T17:43:49.070Z,21.8
2019-02-16T17:46:55.775Z,21.8
2019-02-16T17:50:02.101Z,21.8
2019-02-16T17:53:08.060Z,21.7
2019-02-16T17:56:14.158Z,21.7
2019-02-16T17:59:22.646Z,21.7
2019-02-16T18:02:28.571Z,21.7
2019-02-16T18:05:34.623Z,21.7
2019-02-16T18:08:40.681Z,21.7
2019-02-16T18:11:46.662Z,21.7
2019-02-16T18:14:52.552Z,21.6
2019-02-16T18:17:58.513Z,21.6
2019-02-16T18:21:04.475Z,21.6
2019-02-16T18:24:10.688Z,21.6
2019-02-16T18:27:16.651Z,21.6
2019-02-16T18:30:22.749Z,21.6
2019-02-16T18:33:28.712Z,21.6
2019-02-16T18:36:34.665Z,21.5
2019-02-16T18:39:40.593Z,21.5
2019-02-16T18:42:46.642Z,21.5
2019-02-16T18:45:52.668Z,21.5
2019-02-16T18:48:58.686Z,21.5
2019-02-16T18:52:04.684Z,21.5
2019-02-16T18:55:11.358Z,21.5
2019-02-16T18:58:17.460Z,21.5
2019-02-16T19:01:23.481Z,21.5
2019-02-16T19:04:32.312Z,21.5
2019-02-16T19:07:38.355Z,21.5
2019-02-16T19:10:44.374Z,21.4
2019-02-16T19:13:50.373Z,21.4
2019-02-16T19:16:56.326Z,21.4
2019-02-16T19:20:02.261Z,21.4
2019-02-16T19:23:08.235Z,21.4
2019-02-16T19:26:14.279Z,21.4
2019-02-16T19:29:20.305Z,21.4
2019-02-16T19:32:26.247Z,21.4
2019-02-16T19:35:32.264Z,21.4
2019-02-16T19:38:38.330Z,21.4
2019-02-16T19:41:44.352Z,21.3
2019-02-16T19:44:50.426Z,21.3
2019-02-16T19:47:56.423Z,21.3
2019-02-16T19:51:02.451Z,21.3
2019-02-16T19:54:08.439Z,21.3
2019-02-16T19:57:14.450Z,21.3
2019-02-16T20:00:30.526Z,21.3
2019-02-16T20:03:36.491Z,21.3
2019-02-16T20:06:42.356Z,21.3
2019-02-16T20:09:48.983Z,21.3
2019-02-16T20:12:55.004Z,21.3
2019-02-16T20:16:01.048Z,21.2
2019-02-16T20:19:06.965Z,21.2
2019-02-16T20:22:12.942Z,21.2
2019-02-16T20:25:18.900Z,21.2
2019-02-16T20:28:24.898Z,21.2
2019-02-16T20:31:30.763Z,21.2
2019-02-16T20:34:36.713Z,21.2
2019-02-16T20:37:42.673Z,21.2
2019-02-16T20:40:48.736Z,21.2
2019-02-16T20:43:54.863Z,21.2
2019-02-16T20:47:00.755Z,21.1
2019-02-16T20:50:09.553Z,21.1
2019-02-16T20:53:15.440Z,21.1
2019-02-16T20:56:21.378Z,21.1
2019-02-16T20:59:27.334Z,21.1
2019-02-16T21:02:33.284Z,21.1
2019-02-16T21:05:39.335Z,21.1
2019-02-16T21:08:45.391Z,21.1
2019-02-16T21:11:51.439Z,21.1
2019-02-16T21:14:57.460Z,21.1
2019-02-16T21:18:03.516Z,21.1
2019-02-16T21:21:09.387Z,21.1
2019-02-16T21:24:15.391Z,21
2019-02-16T21:27:23.674Z,21
2019-02-16T21:30:29.702Z,21
2019-02-16T21:33:36.426Z,21
2019-02-16T21:36:42.469Z,21
2019-02-16T21:39:49.032Z,21
2019-02-16T21:42:54.980Z,21
2019-02-16T21:46:00.873Z,21
2019-02-16T21:49:06.892Z,21
2019-02-16T21:52:12.843Z,21
2019-02-16T21:55:21.377Z,21
2019-02-16T21:58:27.423Z,21
2019-02-16T22:01:33.410Z,20.9
2019-02-16T22:04:39.536Z,20.9
2019-02-16T22:07:45.447Z,20.9
2019-02-16T22:10:51.445Z,20.9
2019-02-16T22:14:00.224Z,20.9
2019-02-16T22:17:06.187Z,20.9
2019-02-16T22:20:12.093Z,20.9
2019-02-16T22:23:18.152Z,20.9
2019-02-16T22:26:24.391Z,20.9
2019-02-16T22:29:30.342Z,20.9
2019-02-16T22:32:36.343Z,20.9
2019-02-16T22:35:42.366Z,20.9
2019-02-16T22:38:48.297Z,20.8
2019-02-16T22:41:54.583Z,20.8
2019-02-16T22:45:00.626Z,20.8
2019-02-16T22:48:06.862Z,20.8
2019-02-16T22:51:12.824Z,20.8
2019-02-16T22:54:18.734Z,20.8
2019-02-16T22:57:24.790Z,20.8
2019-02-16T23:00:30.848Z,20.8
2019-02-16T23:03:36.782Z,20.8
2019-02-16T23:06:42.749Z,20.8
2019-02-16T23:09:48.688Z,20.7
2019-02-16T23:12:54.601Z,20.8
2019-02-16T23:16:03.439Z,20.8
2019-02-16T23:19:09.519Z,20.7
2019-02-16T23:22:15.447Z,20.7
2019-02-16T23:25:21.368Z,20.7
2019-02-16T23:28:27.485Z,20.7
2019-02-16T23:31:43.658Z,20.7
2019-02-16T23:34:49.529Z,20.7
2019-02-16T23:37:55.476Z,20.7
2019-02-16T23:41:01.340Z,20.7
2019-02-16T23:44:10.033Z,20.7
2019-02-16T23:47:16.025Z,20.7
2019-02-16T23:50:21.896Z,20.7
2019-02-16T23:53:27.896Z,20.7
2019-02-16T23:56:33.982Z,20.6
2019-02-16T23:59:39.923Z,20.6
